Time;durP1;ratioP1;P1;durP2;ratioP2;P2;SDS_P1;SDS_P2;PMS_P1;PMS_P2;Temp;Humidity;BMP_temperature;BMP_pressure;BME280_temperature;BME280_humidity;BME280_pressure;Samples;Min_cycle;Max_cycle;Signal;HPM_P1;HPM_P2
2024/01/18 00:01:36;;;;;;;28.23;17.10;;;2.00;99.90;;;;;;5054903;28;20476;-58
2024/01/18 00:04:04;;;;;;;19.77;15.40;;;2.00;99.90;;;;;;5054990;28;20449;-58
2024/01/18 00:06:32;;;;;;;21.83;15.10;;;2.00;99.90;;;;;;5054770;28;20486;-58
2024/01/18 00:08:59;;;;;;;21.43;14.93;;;2.00;99.90;;;;;;5054962;28;20665;-58
2024/01/18 00:11:27;;;;;;;25.97;16.67;;;2.10;99.90;;;;;;5054660;28;20501;-58
2024/01/18 00:13:54;;;;;;;20.63;15.20;;;2.10;99.90;;;;;;5054406;28;20454;-58
2024/01/18 00:16:20;;;;;;;23.37;16.63;;;2.10;99.90;;;;;;5054318;28;20442;-58
2024/01/18 00:18:47;;;;;;;25.90;17.63;;;2.10;99.90;;;;;;5055635;28;20449;-58
2024/01/18 00:21:15;;;;;;;24.53;15.50;;;2.10;99.90;;;;;;5054029;28;20822;-58
2024/01/18 00:23:42;;;;;;;24.80;15.90;;;2.00;99.90;;;;;;5054505;28;20445;-58
2024/01/18 00:26:09;;;;;;;23.00;16.90;;;1.90;99.90;;;;;;5054104;28;21003;-58
2024/01/18 00:28:36;;;;;;;22.33;15.00;;;1.90;99.90;;;;;;5054394;28;20452;-58
2024/01/18 00:31:03;;;;;;;28.50;17.30;;;1.80;99.90;;;;;;5054131;28;20469;-58
2024/01/18 00:33:30;;;;;;;24.80;17.70;;;1.80;99.90;;;;;;5054597;28;20437;-58
2024/01/18 00:35:56;;;;;;;24.30;16.00;;;1.80;99.90;;;;;;5054083;28;20457;-58
2024/01/18 00:38:24;;;;;;;22.87;16.43;;;1.80;99.90;;;;;;5053786;28;20826;-58
2024/01/18 00:40:51;;;;;;;24.17;16.87;;;1.70;99.90;;;;;;5054055;28;20462;-58
2024/01/18 00:43:18;;;;;;;21.43;15.90;;;1.80;99.90;;;;;;5054127;28;20449;-58
2024/01/18 00:45:44;;;;;;;23.50;16.77;;;1.80;99.90;;;;;;5053969;28;20437;-58
2024/01/18 00:48:11;;;;;;;26.80;17.50;;;1.80;99.90;;;;;;5053730;28;20970;-58
2024/01/18 00:50:38;;;;;;;24.37;15.93;;;1.80;99.90;;;;;;5053962;28;20473;-58
2024/01/18 00:53:04;;;;;;;22.67;16.27;;;1.80;99.90;;;;;;5053819;28;20468;-58
2024/01/18 00:55:33;;;;;;;28.37;15.77;;;1.80;99.90;;;;;;5053814;28;20446;-58
2024/01/18 00:58:00;;;;;;;24.07;16.43;;;1.80;99.90;;;;;;5053259;28;20454;-58
2024/01/18 01:00:27;;;;;;;22.27;15.73;;;1.90;99.90;;;;;;5053562;28;20465;-58
2024/01/18 01:02:54;;;;;;;20.63;15.73;;;1.90;99.90;;;;;;5053335;28;20452;-57
2024/01/18 01:05:20;;;;;;;24.50;17.07;;;2.00;99.90;;;;;;5053572;28;20441;-58
2024/01/18 01:07:47;;;;;;;20.77;16.00;;;2.00;99.90;;;;;;5053634;28;20484;-58
2024/01/18 01:10:14;;;;;;;20.47;14.60;;;2.00;99.90;;;;;;5053119;28;20469;-58
2024/01/18 01:12:42;;;;;;;19.90;14.00;;;2.00;99.90;;;;;;5053796;28;20438;-58
2024/01/18 01:15:10;;;;;;;22.97;15.97;;;2.00;99.90;;;;;;5053583;28;20433;-58
2024/01/18 01:17:36;;;;;;;27.80;15.30;;;2.00;99.90;;;;;;5053468;28;20442;-58
2024/01/18 01:20:04;;;;;;;26.73;17.97;;;2.00;99.90;;;;;;5053527;28;20470;-58
2024/01/18 01:22:30;;;;;;;26.63;16.53;;;2.10;99.90;;;;;;5053737;28;20441;-58
2024/01/18 01:24:57;;;;;;;22.90;15.40;;;2.10;99.90;;;;;;5053692;28;20495;-58
2024/01/18 01:27:24;;;;;;;30.20;19.70;;;2.10;99.90;;;;;;5052607;28;20530;-58
2024/01/18 01:29:52;;;;;;;30.37;22.60;;;2.00;99.90;;;;;;5053390;28;20465;-58
2024/01/18 01:32:19;;;;;;;26.83;17.63;;;2.00;99.90;;;;;;5053558;28;20823;-58
2024/01/18 01:34:45;;;;;;;25.37;17.53;;;2.00;99.90;;;;;;5053794;28;20446;-58
2024/01/18 01:37:13;;;;;;;24.70;17.10;;;1.90;99.90;;;;;;5053394;28;20441;-58
2024/01/18 01:39:40;;;;;;;24.90;17.77;;;1.90;99.90;;;;;;5053483;28;20453;-58
2024/01/18 01:42:07;;;;;;;25.20;16.77;;;1.90;99.90;;;;;;5053462;28;20442;-58
2024/01/18 01:44:33;;;;;;;24.23;16.57;;;1.90;99.90;;;;;;5053345;28;20812;-58
2024/01/18 01:47:01;;;;;;;23.87;18.10;;;1.80;99.90;;;;;;5053141;28;20508;-58
2024/01/18 01:49:28;;;;;;;24.90;16.93;;;1.80;99.90;;;;;;5053324;28;20453;-58
2024/01/18 01:51:55;;;;;;;29.43;15.57;;;1.90;99.90;;;;;;5053124;28;20496;-58
2024/01/18 01:54:25;;;;;;;23.93;17.40;;;1.80;99.90;;;;;;5053145;28;20449;-57
2024/01/18 01:56:54;;;;;;;27.83;18.70;;;1.80;99.90;;;;;;5053408;28;20794;-58
2024/01/18 01:59:22;;;;;;;26.70;15.70;;;1.80;99.90;;;;;;5053230;28;20445;-57
2024/01/18 02:01:50;;;;;;;25.70;17.50;;;1.80;99.90;;;;;;5053077;28;20458;-58
2024/01/18 02:04:19;;;;;;;22.07;16.20;;;1.80;99.90;;;;;;5053082;28;20441;-57
2024/01/18 02:06:50;;;;;;;24.20;16.60;;;1.90;99.90;;;;;;5052983;28;20484;-57
2024/01/18 02:09:17;;;;;;;22.87;15.70;;;2.00;99.90;;;;;;5053306;28;20437;-56
2024/01/18 02:11:44;;;;;;;23.07;16.70;;;2.10;99.90;;;;;;5052761;28;20465;-56
2024/01/18 02:14:11;;;;;;;29.80;17.87;;;2.00;99.90;;;;;;5052899;28;20452;-56
2024/01/18 02:16:38;;;;;;;20.20;17.30;;;2.00;99.90;;;;;;5053055;28;20441;-56
2024/01/18 02:19:04;;;;;;;23.57;17.50;;;2.00;99.90;;;;;;5052781;28;20446;-56
2024/01/18 02:21:33;;;;;;;20.53;15.97;;;1.90;99.90;;;;;;5052439;28;20500;-56
2024/01/18 02:24:11;;;;;;;23.90;16.80;;;2.00;99.90;;;;;;5052975;28;20870;-56
2024/01/18 02:26:39;;;;;;;23.83;17.20;;;2.00;99.90;;;;;;5052926;28;20470;-56
2024/01/18 02:29:06;;;;;;;26.50;16.47;;;2.00;99.90;;;;;;5052744;28;20446;-56
2024/01/18 02:31:33;;;;;;;22.40;17.20;;;2.00;99.90;;;;;;5052262;28;21007;-56
2024/01/18 02:33:59;;;;;;;28.73;18.33;;;1.90;99.90;;;;;;5052754;28;20816;-56
2024/01/18 02:36:26;;;;;;;23.60;18.20;;;1.90;99.90;;;;;;5052713;28;20442;-56
2024/01/18 02:38:54;;;;;;;25.00;16.77;;;1.90;99.90;;;;;;5055294;28;20441;-56
2024/01/18 02:41:21;;;;;;;30.90;17.37;;;1.80;99.90;;;;;;5056363;28;20469;-56
2024/01/18 02:43:49;;;;;;;23.53;17.30;;;1.80;99.90;;;;;;5056258;28;20855;-56
2024/01/18 02:46:17;;;;;;;26.93;16.33;;;1.80;99.90;;;;;;5056097;28;20448;-56
2024/01/18 02:48:44;;;;;;;21.80;16.73;;;1.90;99.90;;;;;;5056246;28;20481;-56
2024/01/18 02:51:10;;;;;;;29.27;18.80;;;1.90;99.90;;;;;;5056248;28;20462;-56
2024/01/18 02:53:37;;;;;;;25.30;16.97;;;1.90;99.90;;;;;;5056306;28;20449;-55
2024/01/18 02:56:05;;;;;;;22.60;16.40;;;1.90;99.90;;;;;;5056834;28;20434;-56
2024/01/18 02:58:31;;;;;;;25.63;17.83;;;1.90;99.90;;;;;;5057042;28;20515;-56
2024/01/18 03:00:59;;;;;;;27.80;18.13;;;1.90;99.90;;;;;;5056437;28;20473;-56
2024/01/18 03:03:26;;;;;;;27.20;17.93;;;1.80;99.90;;;;;;5056619;28;20453;-56
2024/01/18 03:05:53;;;;;;;23.60;16.17;;;1.80;99.90;;;;;;5056216;28;20449;-56
2024/01/18 03:08:20;;;;;;;23.97;16.67;;;1.80;99.90;;;;;;5055998;28;20473;-56
2024/01/18 03:10:47;;;;;;;35.00;17.33;;;1.80;99.90;;;;;;5055929;28;20556;-56
2024/01/18 03:13:13;;;;;;;22.83;18.17;;;1.80;99.90;;;;;;5056358;28;20437;-56
2024/01/18 03:15:40;;;;;;;27.50;18.77;;;1.80;99.90;;;;;;5056604;28;20446;-56
2024/01/18 03:18:08;;;;;;;27.73;17.83;;;1.80;99.90;;;;;;5055721;28;20434;-56
2024/01/18 03:20:35;;;;;;;22.70;17.00;;;1.80;99.90;;;;;;5055696;28;20522;-56
2024/01/18 03:23:02;;;;;;;27.27;17.10;;;1.80;99.90;;;;;;5055309;28;20972;-56
2024/01/18 03:25:28;;;;;;;30.30;17.73;;;1.80;99.90;;;;;;5055657;28;20450;-56
2024/01/18 03:27:55;;;;;;;27.07;17.50;;;1.80;99.90;;;;;;5055556;28;20481;-56
2024/01/18 03:30:22;;;;;;;28.40;18.60;;;1.80;99.90;;;;;;5055455;28;20464;-56
2024/01/18 03:32:48;;;;;;;23.70;18.93;;;1.80;99.90;;;;;;5055506;28;20449;-56
2024/01/18 03:35:16;;;;;;;21.97;16.40;;;1.80;99.90;;;;;;5055404;28;20449;-56
2024/01/18 03:37:43;;;;;;;25.47;17.90;;;1.90;99.90;;;;;;5055447;28;20848;-56
2024/01/18 03:40:10;;;;;;;26.70;17.60;;;1.90;99.90;;;;;;5055192;28;20508;-57
2024/01/18 03:42:40;;;;;;;22.40;17.70;;;1.90;99.90;;;;;;5055295;28;20870;-56
2024/01/18 03:45:08;;;;;;;27.40;16.97;;;1.80;99.90;;;;;;5055199;28;20462;-56
2024/01/18 03:47:34;;;;;;;26.53;18.00;;;1.80;99.90;;;;;;5055044;28;20834;-56
2024/01/18 03:50:01;;;;;;;29.00;18.37;;;1.80;99.90;;;;;;5054455;28;20497;-56
2024/01/18 03:52:29;;;;;;;22.27;17.30;;;1.80;99.90;;;;;;5054915;28;20966;-56
2024/01/18 03:54:56;;;;;;;23.23;16.00;;;1.90;99.90;;;;;;5054995;28;20539;-56
2024/01/18 03:57:22;;;;;;;30.70;20.23;;;1.90;99.90;;;;;;5054996;28;20450;-56
2024/01/18 03:59:49;;;;;;;25.17;18.33;;;1.90;99.90;;;;;;5054963;28;20448;-56
2024/01/18 04:02:16;;;;;;;22.53;16.30;;;1.90;99.90;;;;;;5054943;28;20446;-56
2024/01/18 04:04:42;;;;;;;24.60;17.57;;;1.90;99.90;;;;;;5054923;28;20449;-56
2024/01/18 04:07:09;;;;;;;24.43;17.93;;;1.90;99.90;;;;;;5054872;28;20474;-56
2024/01/18 04:09:37;;;;;;;25.73;18.10;;;1.90;99.90;;;;;;5054360;28;20912;-56
2024/01/18 04:12:05;;;;;;;28.60;18.60;;;1.90;99.90;;;;;;5054585;28;20453;-56
2024/01/18 04:14:31;;;;;;;30.03;17.43;;;1.90;99.90;;;;;;5054587;28;20445;-56
2024/01/18 04:16:58;;;;;;;25.70;18.57;;;1.90;99.90;;;;;;5054565;28;20437;-56
2024/01/18 04:19:25;;;;;;;29.10;19.03;;;1.80;99.90;;;;;;5054514;28;20814;-56
2024/01/18 04:21:52;;;;;;;27.90;19.40;;;1.80;99.90;;;;;;5054404;28;20812;-56
2024/01/18 04:24:18;;;;;;;33.33;18.37;;;1.80;99.90;;;;;;5054043;28;20818;-56
2024/01/18 04:26:49;;;;;;;25.93;18.27;;;1.80;99.90;;;;;;5054421;28;20536;-56
2024/01/18 04:29:16;;;;;;;27.10;19.10;;;1.80;99.90;;;;;;5054461;28;20433;-56
2024/01/18 04:31:42;;;;;;;28.93;19.00;;;1.80;99.90;;;;;;5053807;28;20470;-56
2024/01/18 04:34:09;;;;;;;27.40;18.70;;;1.80;99.90;;;;;;5054346;28;20448;-56
2024/01/18 04:36:36;;;;;;;25.83;19.63;;;1.80;99.90;;;;;;5054171;28;20448;-56
2024/01/18 04:39:02;;;;;;;25.30;18.53;;;1.80;99.90;;;;;;5054087;28;20453;-56
2024/01/18 04:41:29;;;;;;;23.43;19.13;;;1.70;99.90;;;;;;5054076;28;20472;-56
2024/01/18 04:43:57;;;;;;;25.90;18.20;;;1.80;99.90;;;;;;5054324;28;20438;-55
2024/01/18 04:46:24;;;;;;;24.07;19.50;;;1.70;99.90;;;;;;5054157;28;20453;-56
2024/01/18 04:48:51;;;;;;;26.57;19.43;;;1.70;99.90;;;;;;5053650;28;20994;-56
2024/01/18 04:51:19;;;;;;;22.43;16.63;;;1.70;99.90;;;;;;5053472;28;20465;-56
2024/01/18 04:53:46;;;;;;;22.73;17.03;;;1.80;99.90;;;;;;5053805;28;20454;-56
2024/01/18 04:56:12;;;;;;;29.70;19.27;;;1.90;99.90;;;;;;5053526;28;20940;-56
2024/01/18 04:58:39;;;;;;;25.93;19.60;;;1.90;99.90;;;;;;5053840;28;20444;-56
2024/01/18 05:01:07;;;;;;;26.13;18.50;;;1.90;99.90;;;;;;5053491;28;20462;-56
2024/01/18 05:03:34;;;;;;;30.70;18.23;;;1.80;99.90;;;;;;5053675;28;20437;-56
2024/01/18 05:06:01;;;;;;;27.77;18.13;;;1.80;99.90;;;;;;5053728;28;20444;-56
2024/01/18 05:08:28;;;;;;;25.53;16.67;;;1.80;99.90;;;;;;5053547;28;20481;-56
2024/01/18 05:10:54;;;;;;;27.80;17.60;;;1.90;99.90;;;;;;5053430;28;20826;-56
2024/01/18 05:13:22;;;;;;;29.77;17.17;;;1.90;99.90;;;;;;5053519;28;20469;-56
2024/01/18 05:15:49;;;;;;;29.90;20.27;;;2.00;99.90;;;;;;5053537;28;20449;-56
2024/01/18 05:18:17;;;;;;;26.93;18.67;;;2.00;99.90;;;;;;5053459;28;20449;-56
2024/01/18 05:20:43;;;;;;;26.10;18.50;;;1.90;99.90;;;;;;5053386;28;20469;-56
2024/01/18 05:23:10;;;;;;;25.30;18.80;;;1.90;99.90;;;;;;5053603;28;20446;-56
2024/01/18 05:25:37;;;;;;;26.50;16.80;;;1.90;99.90;;;;;;5053420;28;20454;-56
2024/01/18 05:28:04;;;;;;;26.70;18.40;;;1.90;99.90;;;;;;5053364;28;20503;-57
2024/01/18 05:30:31;;;;;;;28.53;17.83;;;2.00;99.90;;;;;;5053265;28;20464;-57
2024/01/18 05:32:57;;;;;;;25.27;17.57;;;1.90;99.90;;;;;;5053264;28;20453;-57
2024/01/18 05:35:25;;;;;;;30.40;18.30;;;1.90;99.90;;;;;;5053392;28;20841;-57
2024/01/18 05:37:52;;;;;;;30.33;19.10;;;1.90;99.90;;;;;;5053393;28;20441;-57
2024/01/18 05:40:21;;;;;;;25.30;18.60;;;1.90;99.90;;;;;;5053409;28;20461;-57
2024/01/18 05:42:48;;;;;;;26.50;17.80;;;1.90;99.90;;;;;;5053514;28;20453;-57
2024/01/18 05:45:15;;;;;;;27.60;18.10;;;1.90;99.90;;;;;;5053043;28;20948;-57
2024/01/18 05:47:41;;;;;;;26.57;18.50;;;1.90;99.90;;;;;;5052885;28;21002;-57
2024/01/18 05:50:09;;;;;;;23.10;16.70;;;1.80;99.90;;;;;;5053189;28;20476;-56
2024/01/18 05:52:37;;;;;;;25.03;18.40;;;1.80;99.90;;;;;;5053058;28;20461;-56
2024/01/18 05:55:04;;;;;;;22.70;16.80;;;1.80;99.90;;;;;;5053225;28;20449;-57
2024/01/18 05:57:31;;;;;;;29.90;19.90;;;1.80;99.90;;;;;;5053149;28;20444;-57
2024/01/18 05:59:58;;;;;;;26.00;18.63;;;1.80;99.90;;;;;;5052982;28;20470;-57
2024/01/18 06:02:24;;;;;;;27.23;17.50;;;1.80;99.90;;;;;;5053004;28;20457;-57
2024/01/18 06:04:51;;;;;;;27.90;18.43;;;1.80;99.90;;;;;;5053120;28;20453;-57
2024/01/18 06:07:18;;;;;;;25.47;19.00;;;1.80;99.90;;;;;;5052872;28;20452;-57
2024/01/18 06:09:46;;;;;;;25.17;17.83;;;1.70;99.90;;;;;;5052874;28;20445;-57
2024/01/18 06:12:13;;;;;;;29.53;17.80;;;1.80;99.90;;;;;;5053023;28;20445;-57
2024/01/18 06:14:39;;;;;;;22.10;16.73;;;1.80;99.90;;;;;;5057324;28;20460;-57
2024/01/18 06:17:06;;;;;;;25.60;17.83;;;1.80;99.90;;;;;;5057156;28;20453;-57
2024/01/18 06:19:33;;;;;;;27.77;17.40;;;1.80;99.90;;;;;;5057273;28;20449;-57
2024/01/18 06:22:00;;;;;;;22.93;17.10;;;1.80;99.90;;;;;;5056959;28;20946;-57
2024/01/18 06:24:28;;;;;;;23.50;18.00;;;1.70;99.90;;;;;;5056999;28;20492;-56
2024/01/18 06:26:56;;;;;;;28.43;19.13;;;1.80;99.90;;;;;;5057063;28;20449;-57
2024/01/18 06:29:26;;;;;;;31.23;18.90;;;1.80;99.90;;;;;;5056692;28;20485;-57
2024/01/18 06:31:53;;;;;;;25.87;18.73;;;1.70;99.90;;;;;;5056483;28;20465;-56
2024/01/18 06:34:19;;;;;;;26.33;19.17;;;1.70;99.90;;;;;;5056509;28;20450;-57
2024/01/18 06:36:46;;;;;;;23.30;16.03;;;1.70;99.90;;;;;;5056863;28;20452;-57
2024/01/18 06:39:13;;;;;;;26.57;16.20;;;1.70;99.90;;;;;;5056564;28;20495;-56
2024/01/18 06:41:40;;;;;;;21.23;15.57;;;1.70;99.90;;;;;;5056316;28;20526;-57
2024/01/18 06:44:08;;;;;;;31.33;19.23;;;1.70;99.90;;;;;;5056030;28;20441;-57
2024/01/18 06:46:35;;;;;;;20.47;15.40;;;1.70;99.90;;;;;;5056535;28;20446;-57
2024/01/18 06:49:02;;;;;;;27.53;18.57;;;1.60;99.90;;;;;;5056275;28;20477;-57
2024/01/18 06:51:29;;;;;;;20.57;16.40;;;1.60;99.90;;;;;;5055602;28;20473;-57
2024/01/18 06:53:56;;;;;;;23.23;15.97;;;1.60;99.90;;;;;;5055896;28;20426;-57
2024/01/18 06:56:23;;;;;;;26.17;17.83;;;1.50;99.90;;;;;;5055990;28;21167;-57
2024/01/18 06:58:49;;;;;;;23.20;14.97;;;1.60;99.90;;;;;;5056976;28;20448;-56
2024/01/18 07:01:17;;;;;;;30.30;19.40;;;1.60;99.90;;;;;;5056126;28;20473;-56
2024/01/18 07:03:44;;;;;;;27.60;16.77;;;1.50;99.90;;;;;;5056108;28;20540;-57
2024/01/18 07:06:11;;;;;;;20.87;17.23;;;1.50;99.90;;;;;;5055844;28;20932;-57
2024/01/18 07:08:38;;;;;;;25.87;16.43;;;1.40;99.90;;;;;;5055974;28;20474;-57
2024/01/18 07:11:05;;;;;;;22.80;17.67;;;1.50;99.90;;;;;;5055572;28;21037;-56
2024/01/18 07:13:32;;;;;;;22.73;16.67;;;1.50;99.90;;;;;;5055892;28;20450;-56
2024/01/18 07:15:58;;;;;;;25.17;16.30;;;1.50;99.90;;;;;;5055995;28;20449;-56
2024/01/18 07:18:26;;;;;;;25.50;17.47;;;1.50;99.90;;;;;;5055907;28;20452;-56
2024/01/18 07:20:53;;;;;;;24.50;16.30;;;1.50;99.90;;;;;;5055646;28;20473;-56
2024/01/18 07:23:20;;;;;;;22.60;16.33;;;1.40;99.90;;;;;;5055619;28;20450;-56
2024/01/18 07:25:46;;;;;;;27.43;17.00;;;1.40;99.90;;;;;;5056460;28;20445;-56
2024/01/18 07:28:13;;;;;;;20.17;15.80;;;1.40;99.90;;;;;;5055161;28;21009;-56
2024/01/18 07:30:40;;;;;;;21.67;15.40;;;1.40;99.90;;;;;;5055410;28;20472;-56
2024/01/18 07:33:06;;;;;;;24.00;15.53;;;1.40;99.90;;;;;;5055379;28;20442;-56
2024/01/18 07:35:34;;;;;;;22.43;15.50;;;1.40;99.90;;;;;;5055379;28;20448;-56
2024/01/18 07:38:01;;;;;;;23.77;15.17;;;1.40;99.90;;;;;;5055075;28;20936;-57
2024/01/18 07:40:28;;;;;;;21.33;15.20;;;1.40;99.90;;;;;;5055399;28;20488;-56
2024/01/18 07:42:54;;;;;;;19.53;15.03;;;1.30;99.90;;;;;;5055293;28;20449;-56
2024/01/18 07:45:21;;;;;;;21.30;14.80;;;1.20;99.90;;;;;;5055211;28;20474;-56
2024/01/18 07:47:48;;;;;;;21.47;15.73;;;1.10;99.90;;;;;;5055264;28;20820;-56
2024/01/18 07:50:15;;;;;;;22.33;15.57;;;1.00;99.90;;;;;;5055399;28;20462;-56
2024/01/18 07:52:43;;;;;;;26.60;17.60;;;1.00;99.90;;;;;;5054784;28;20457;-56
2024/01/18 07:55:09;;;;;;;23.40;16.70;;;0.80;99.90;;;;;;5055163;28;20807;-56
2024/01/18 07:57:37;;;;;;;23.53;17.10;;;0.70;99.90;;;;;;5055302;28;20446;-56
2024/01/18 08:00:04;;;;;;;27.60;17.33;;;0.60;99.90;;;;;;5054999;28;20848;-56
2024/01/18 08:02:31;;;;;;;26.20;18.00;;;0.50;99.90;;;;;;5054834;28;20448;-56
2024/01/18 08:04:58;;;;;;;24.50;19.00;;;0.60;99.90;;;;;;5054637;28;20452;-56
2024/01/18 08:07:24;;;;;;;27.30;17.70;;;0.70;99.90;;;;;;5054668;28;20480;-56
2024/01/18 08:09:53;;;;;;;22.37;16.40;;;0.70;99.90;;;;;;5054642;28;20850;-56
2024/01/18 08:12:19;;;;;;;24.77;16.33;;;0.70;99.90;;;;;;5054666;28;20442;-56
2024/01/18 08:14:46;;;;;;;27.03;17.00;;;0.70;99.90;;;;;;5054441;28;20446;-56
2024/01/18 08:17:13;;;;;;;24.50;16.40;;;0.60;99.90;;;;;;5054771;28;20442;-56
2024/01/18 08:19:40;;;;;;;22.57;16.20;;;0.60;99.90;;;;;;5054588;28;20821;-56
2024/01/18 08:22:07;;;;;;;24.50;16.90;;;0.60;99.90;;;;;;5054574;28;20453;-56
2024/01/18 08:24:34;;;;;;;29.33;18.47;;;0.50;99.90;;;;;;5054080;28;20959;-56
2024/01/18 08:27:02;;;;;;;29.33;17.57;;;0.50;99.90;;;;;;5054500;28;20473;-56
2024/01/18 08:29:29;;;;;;;29.77;19.90;;;0.50;99.80;;;;;;5054267;28;20489;-56
2024/01/18 08:31:56;;;;;;;28.13;19.03;;;0.50;99.60;;;;;;5054290;28;20465;-56
2024/01/18 08:34:22;;;;;;;29.83;19.70;;;0.40;99.40;;;;;;5054260;28;20448;-56
2024/01/18 08:36:49;;;;;;;24.27;16.10;;;0.30;99.10;;;;;;5053825;28;20441;-55
2024/01/18 08:39:16;;;;;;;28.47;19.27;;;0.30;99.10;;;;;;5053785;28;20974;-56
2024/01/18 08:41:43;;;;;;;27.30;18.40;;;0.20;98.90;;;;;;5053758;28;20470;-56
2024/01/18 08:44:11;;;;;;;24.57;17.17;;;0.20;98.80;;;;;;5053868;28;20958;-56
2024/01/18 08:46:39;;;;;;;24.70;16.50;;;0.10;98.50;;;;;;5054137;28;20449;-56
2024/01/18 08:49:06;;;;;;;22.53;16.80;;;0.10;98.80;;;;;;5054136;28;20513;-56
2024/01/18 08:51:33;;;;;;;26.30;19.73;;;0.00;99.00;;;;;;5053774;28;20870;-56
2024/01/18 08:54:00;;;;;;;25.80;19.37;;;-0.10;98.80;;;;;;5054250;28;20422;-56
2024/01/18 08:56:26;;;;;;;29.93;19.90;;;-0.10;98.80;;;;;;5053983;28;20466;-56
2024/01/18 08:58:53;;;;;;;28.53;18.50;;;-0.10;99.00;;;;;;5053608;28;20939;-56
2024/01/18 09:01:21;;;;;;;32.70;18.20;;;-0.10;99.10;;;;;;5053538;28;20835;-55
2024/01/18 09:03:48;;;;;;;26.80;18.00;;;-0.20;99.30;;;;;;5054248;28;20446;-56
2024/01/18 09:06:14;;;;;;;24.60;17.47;;;-0.30;99.20;;;;;;5053799;28;20450;-56
2024/01/18 09:08:41;;;;;;;21.83;16.00;;;-0.30;99.20;;;;;;5053620;28;20482;-56
2024/01/18 09:11:08;;;;;;;23.63;16.90;;;-0.30;99.30;;;;;;5054593;28;20469;-56
2024/01/18 09:13:35;;;;;;;23.10;16.40;;;-0.30;99.60;;;;;;5053935;28;20438;-56
2024/01/18 09:16:01;;;;;;;25.33;16.53;;;-0.30;99.20;;;;;;5053495;28;20441;-56
2024/01/18 09:18:29;;;;;;;20.90;16.03;;;-0.30;99.20;;;;;;5053364;28;20448;-56
2024/01/18 09:20:56;;;;;;;20.70;15.97;;;-0.40;98.90;;;;;;5053556;28;20464;-56
2024/01/18 09:23:23;;;;;;;24.27;17.17;;;-0.40;99.10;;;;;;5053455;28;20465;-56
2024/01/18 09:25:49;;;;;;;23.57;17.03;;;-0.50;99.00;;;;;;5053452;28;20449;-56
2024/01/18 09:28:16;;;;;;;21.30;17.23;;;-0.50;99.50;;;;;;5053332;28;20448;-56
2024/01/18 09:30:43;;;;;;;28.10;19.20;;;-0.50;99.60;;;;;;5053229;28;20820;-56
2024/01/18 09:33:10;;;;;;;28.63;21.00;;;-0.50;99.50;;;;;;5053183;28;20448;-56
2024/01/18 09:35:40;;;;;;;29.27;21.23;;;-0.50;99.90;;;;;;5053302;28;20449;-55
2024/01/18 09:38:10;;;;;;;32.67;21.17;;;-0.50;99.70;;;;;;5053518;28;20449;-56
2024/01/18 09:40:38;;;;;;;34.80;22.20;;;-0.60;99.60;;;;;;5053811;28;20462;-56
2024/01/18 09:43:09;;;;;;;30.50;20.17;;;-0.60;99.60;;;;;;5053558;28;20552;-56
2024/01/18 09:45:39;;;;;;;24.10;17.57;;;-0.60;99.50;;;;;;5053383;28;20434;-56
2024/01/18 09:48:07;;;;;;;27.50;19.83;;;-0.60;99.90;;;;;;5055910;28;20461;-56
2024/01/18 09:50:36;;;;;;;23.87;18.43;;;-0.40;99.90;;;;;;5057409;28;20870;-57
2024/01/18 09:53:05;;;;;;;24.63;18.70;;;-0.40;99.90;;;;;;5057117;28;20461;-56
2024/01/18 09:55:32;;;;;;;26.43;18.53;;;-0.40;99.90;;;;;;5057257;28;20453;-56
2024/01/18 09:58:03;;;;;;;25.77;17.67;;;-0.40;99.90;;;;;;5057258;28;20962;-57
2024/01/18 10:00:32;;;;;;;24.70;18.67;;;-0.30;99.90;;;;;;5057165;28;20461;-57
2024/01/18 10:02:59;;;;;;;30.17;18.93;;;-0.20;99.90;;;;;;5057646;28;20479;-57
2024/01/18 10:05:26;;;;;;;24.20;18.37;;;-0.20;99.90;;;;;;5057137;28;20442;-57
2024/01/18 10:07:53;;;;;;;34.27;21.97;;;-0.20;99.90;;;;;;5057355;28;20494;-57
2024/01/18 10:10:21;;;;;;;28.67;21.30;;;-0.10;99.90;;;;;;5057026;28;20488;-57
2024/01/18 10:12:48;;;;;;;30.03;20.70;;;-0.10;99.90;;;;;;5057692;28;20923;-57
2024/01/18 10:15:31;;;;;;;26.93;21.20;;;-0.10;99.90;;;;;;5056702;28;20484;-58
2024/01/18 10:17:57;;;;;;;33.53;21.30;;;-0.10;99.90;;;;;;5057083;28;20883;-58
2024/01/18 10:20:26;;;;;;;30.40;21.60;;;-0.10;99.90;;;;;;5056930;28;20466;-57
2024/01/18 10:22:54;;;;;;;30.37;20.87;;;-0.10;99.90;;;;;;5056490;28;20943;-58
2024/01/18 10:25:23;;;;;;;25.47;20.23;;;0.00;99.90;;;;;;5056764;28;20442;-58
2024/01/18 10:27:52;;;;;;;35.90;23.27;;;0.00;99.90;;;;;;5056981;28;20495;-58
2024/01/18 10:30:19;;;;;;;33.63;22.87;;;0.10;99.90;;;;;;5056819;28;20513;-58
2024/01/18 10:32:46;;;;;;;30.40;22.77;;;0.10;99.90;;;;;;5056621;28;20449;-58
2024/01/18 10:35:20;;;;;;;33.13;22.53;;;0.10;99.90;;;;;;5056644;28;20445;-58
2024/01/18 10:37:48;;;;;;;33.20;21.50;;;0.20;99.90;;;;;;5056511;28;20960;-58
2024/01/18 10:40:19;;;;;;;31.30;22.50;;;0.30;99.90;;;;;;5056456;28;20480;-58
2024/01/18 10:42:47;;;;;;;32.47;22.17;;;0.30;99.90;;;;;;5056194;28;20429;-58
2024/01/18 10:45:14;;;;;;;25.47;20.27;;;0.30;99.90;;;;;;5056515;28;20437;-58
2024/01/18 10:47:42;;;;;;;31.03;21.87;;;0.40;99.90;;;;;;5056432;28;20473;-58
2024/01/18 10:50:10;;;;;;;26.40;22.47;;;0.40;99.90;;;;;;5056277;28;20489;-59
2024/01/18 10:52:38;;;;;;;27.20;21.07;;;0.50;99.90;;;;;;5056139;28;20457;-59
2024/01/18 10:55:08;;;;;;;28.90;21.43;;;0.60;99.90;;;;;;5056184;28;20643;-59
2024/01/18 10:57:35;;;;;;;25.30;19.10;;;0.60;99.90;;;;;;5056283;28;20468;-59
2024/01/18 11:00:06;;;;;;;32.90;22.20;;;0.60;99.90;;;;;;5055852;28;20457;-59
2024/01/18 11:02:35;;;;;;;30.90;20.60;;;0.70;99.90;;;;;;5056115;28;20430;-59
2024/01/18 11:05:02;;;;;;;26.97;20.17;;;0.80;99.90;;;;;;5055992;28;20484;-59
2024/01/18 11:07:29;;;;;;;25.60;19.87;;;0.80;99.90;;;;;;5055638;28;21033;-59
2024/01/18 11:09:56;;;;;;;23.73;18.90;;;0.90;99.90;;;;;;5055768;28;20487;-59
2024/01/18 11:12:23;;;;;;;23.17;19.00;;;1.00;99.90;;;;;;5055985;28;20446;-59
2024/01/18 11:14:50;;;;;;;26.77;19.13;;;1.00;99.90;;;;;;5055728;28;20453;-59
2024/01/18 11:17:19;;;;;;;25.50;19.10;;;1.10;99.90;;;;;;5055880;28;20446;-59
2024/01/18 11:19:46;;;;;;;22.40;18.07;;;1.20;99.90;;;;;;5055589;28;20441;-59
2024/01/18 11:22:23;;;;;;;26.13;18.90;;;1.20;99.90;;;;;;5055820;28;20449;-59
2024/01/18 11:24:50;;;;;;;22.13;17.70;;;1.30;99.90;;;;;;5055691;28;20433;-59
2024/01/18 11:27:18;;;;;;;27.40;18.10;;;1.30;99.90;;;;;;5055295;28;20448;-60
2024/01/18 11:29:46;;;;;;;24.13;17.77;;;1.40;99.90;;;;;;5055493;28;20484;-59
2024/01/18 11:32:14;;;;;;;21.50;18.00;;;1.50;99.90;;;;;;5055627;28;20465;-59
2024/01/18 11:34:42;;;;;;;26.90;18.37;;;1.50;99.90;;;;;;5055504;28;20477;-59
2024/01/18 11:37:11;;;;;;;21.13;16.03;;;1.50;99.90;;;;;;5055448;28;20453;-59
2024/01/18 11:39:57;;;;;;;26.30;16.87;;;1.60;99.90;;;;;;5055215;28;20446;-59
2024/01/18 11:42:26;;;;;;;20.67;15.90;;;1.70;99.90;;;;;;5055279;28;20452;-59
2024/01/18 11:44:57;;;;;;;27.17;16.93;;;1.80;99.90;;;;;;5055270;28;20441;-59
2024/01/18 11:47:25;;;;;;;27.13;17.80;;;1.90;99.90;;;;;;5055123;28;20441;-59
2024/01/18 11:49:53;;;;;;;25.23;17.60;;;1.90;99.90;;;;;;5054999;28;20477;-59
2024/01/18 11:52:22;;;;;;;31.80;19.00;;;1.90;99.90;;;;;;5054852;28;20457;-59
2024/01/18 11:54:53;;;;;;;23.00;16.50;;;2.00;99.90;;;;;;5054970;28;20450;-59
2024/01/18 11:57:20;;;;;;;25.23;18.77;;;2.10;99.90;;;;;;5055096;28;20429;-59
2024/01/18 11:59:47;;;;;;;25.70;18.90;;;2.10;99.90;;;;;;5054945;28;20433;-59
2024/01/18 12:02:14;;;;;;;24.50;17.67;;;2.10;99.90;;;;;;5054929;28;20453;-59
2024/01/18 12:04:41;;;;;;;27.73;19.67;;;2.20;99.90;;;;;;5054873;28;20446;-59
2024/01/18 12:07:11;;;;;;;26.73;19.40;;;2.20;99.90;;;;;;5054923;28;20468;-59
2024/01/18 12:09:38;;;;;;;31.83;19.20;;;2.30;99.90;;;;;;5054409;28;20839;-59
2024/01/18 12:12:06;;;;;;;26.03;20.03;;;2.30;99.90;;;;;;5054169;28;20441;-59
2024/01/18 12:14:33;;;;;;;24.23;19.53;;;2.40;99.90;;;;;;5054338;28;20940;-59
2024/01/18 12:17:01;;;;;;;25.53;18.77;;;2.40;99.90;;;;;;5054658;28;20447;-59
2024/01/18 12:19:32;;;;;;;26.50;19.60;;;2.50;99.90;;;;;;5054620;28;20481;-59
2024/01/18 12:21:59;;;;;;;27.20;20.07;;;2.60;99.90;;;;;;5054511;28;20504;-59
2024/01/18 12:24:27;;;;;;;31.43;22.00;;;2.60;99.90;;;;;;5054106;28;20452;-59
2024/01/18 12:26:54;;;;;;;28.20;21.70;;;2.70;99.90;;;;;;5054486;28;20453;-59
2024/01/18 12:29:22;;;;;;;33.60;23.43;;;2.70;99.90;;;;;;5054056;28;20445;-59
2024/01/18 12:31:49;;;;;;;29.07;22.00;;;2.80;99.90;;;;;;5054028;28;20979;-59
2024/01/18 12:34:18;;;;;;;31.27;21.57;;;2.80;99.90;;;;;;5054175;28;20478;-59
2024/01/18 12:36:45;;;;;;;29.33;22.07;;;2.90;99.90;;;;;;5054242;28;20438;-59